createdAt,value
2023-02-22T00:00:44.669Z,25.73
2023-02-22T00:01:44.642Z,25.71
2023-02-22T00:02:44.676Z,25.72
2023-02-22T00:03:44.592Z,25.72
2023-02-22T00:04:44.566Z,25.72
2023-02-22T00:54:48.760Z,26.66
2023-02-22T00:55:49.595Z,25.96
2023-02-22T00:56:49.550Z,25.83
2023-02-22T00:57:49.505Z,25.75
2023-02-22T00:58:49.443Z,25.73
2023-02-22T00:59:49.406Z,25.69
2023-02-22T01:00:49.364Z,25.68
2023-02-22T01:01:49.290Z,25.63
2023-02-22T01:02:49.246Z,25.61
2023-02-22T01:03:49.199Z,25.60
2023-02-22T01:04:49.183Z,25.58
2023-02-22T01:05:49.091Z,25.57
2023-02-22T01:06:49.041Z,25.57
2023-02-22T01:07:48.994Z,25.54
2023-02-22T01:08:48.943Z,25.52
2023-02-22T01:09:48.906Z,25.53
2023-02-22T01:10:48.873Z,25.51
2023-02-22T01:11:48.791Z,25.51
2023-02-22T01:12:48.745Z,25.52
2023-02-22T01:13:48.698Z,25.51
2023-02-22T01:14:48.681Z,25.51
2023-02-22T01:15:48.591Z,25.48
2023-02-22T01:16:48.582Z,25.50
2023-02-22T01:17:48.546Z,25.48
2023-02-22T01:18:48.463Z,25.51
2023-02-22T01:19:48.401Z,25.48
2023-02-22T01:20:48.353Z,25.48
2023-02-22T01:21:48.303Z,25.47
2023-02-22T01:22:48.261Z,25.48
2023-02-22T01:23:48.209Z,25.49
2023-02-22T01:24:48.161Z,25.46
2023-02-22T01:25:48.120Z,25.46
2023-02-22T01:26:48.104Z,25.47
2023-02-22T01:27:48.041Z,25.46
2023-02-22T01:28:47.997Z,25.46
2023-02-22T01:29:47.937Z,25.44
2023-02-22T01:30:47.980Z,25.44
2023-02-22T01:31:47.846Z,25.45
2023-02-22T01:32:47.758Z,25.43
2023-02-22T01:33:47.722Z,25.43
2023-02-22T01:34:47.669Z,25.43
2023-02-22T01:35:47.620Z,25.44
2023-02-22T01:36:47.578Z,25.42
2023-02-22T01:37:47.570Z,25.43
2023-02-22T01:38:47.469Z,25.42
2023-02-22T01:39:47.454Z,25.40
2023-02-22T01:40:47.377Z,25.40
2023-02-22T01:41:47.329Z,25.40
2023-02-22T01:42:47.308Z,25.40
2023-02-22T01:43:47.285Z,25.39
2023-02-22T01:44:47.188Z,25.39
2023-02-22T01:45:47.226Z,25.37
2023-02-22T01:46:47.090Z,25.40
2023-02-22T01:47:47.073Z,25.38
2023-02-22T01:48:46.993Z,25.38
2023-02-22T01:49:46.949Z,25.38
2023-02-22T01:50:46.906Z,25.36
2023-02-22T01:51:46.864Z,25.35
2023-02-22T01:52:46.834Z,25.38
2023-02-22T01:53:46.770Z,25.34
2023-02-22T01:54:46.719Z,25.35
2023-02-22T01:55:46.670Z,25.34
2023-02-22T01:56:46.624Z,25.33
2023-02-22T01:57:46.617Z,25.31
2023-02-22T01:58:46.561Z,25.31
2023-02-22T01:59:46.480Z,25.33
2023-02-22T02:00:46.445Z,25.31
2023-02-22T02:01:46.398Z,25.30
2023-02-22T02:02:46.348Z,25.29
2023-02-22T02:03:46.386Z,25.29
2023-02-22T02:04:46.313Z,25.30
2023-02-22T02:05:46.213Z,25.30
2023-02-22T02:06:46.164Z,25.28
2023-02-22T02:07:46.134Z,25.27
2023-02-22T02:08:46.065Z,25.26
2023-02-22T02:09:46.031Z,25.28
2023-02-22T02:10:45.985Z,25.26
2023-02-22T02:11:45.951Z,25.26
2023-02-22T02:12:45.960Z,25.25
2023-02-22T02:13:45.871Z,25.25
2023-02-22T02:14:45.861Z,25.24
2023-02-22T02:15:45.787Z,25.25
2023-02-22T02:16:45.814Z,25.21
2023-02-22T02:17:45.757Z,25.21
2023-02-22T02:18:45.665Z,25.22
2023-02-22T02:19:45.626Z,25.23
2023-02-22T02:20:45.612Z,25.23
2023-02-22T02:21:45.542Z,25.23
2023-02-22T02:22:45.501Z,25.23
2023-02-22T02:23:45.463Z,25.24
2023-02-22T02:24:45.426Z,25.22
2023-02-22T02:25:45.369Z,25.21
2023-02-22T02:26:45.317Z,25.22
2023-02-22T02:27:45.270Z,25.21
2023-02-22T02:28:45.221Z,25.20
2023-02-22T02:29:45.165Z,25.19
2023-02-22T02:30:45.158Z,25.21
2023-02-22T02:31:45.228Z,25.21
2023-02-22T02:32:45.074Z,25.19
2023-02-22T02:33:45.000Z,25.19
2023-02-22T02:34:44.911Z,25.17
2023-02-22T02:35:44.878Z,25.18
2023-02-22T02:36:44.824Z,25.17
2023-02-22T02:37:44.767Z,25.19
2023-02-22T02:38:44.759Z,25.17
2023-02-22T02:39:44.678Z,25.15
2023-02-22T02:40:44.629Z,25.18
2023-02-22T02:41:44.586Z,25.16
2023-02-22T02:42:44.535Z,25.15
2023-02-22T02:43:44.500Z,25.15
2023-02-22T02:44:44.432Z,25.16
2023-02-22T02:45:44.399Z,25.16
2023-02-22T02:46:44.362Z,25.13
2023-02-22T02:47:44.288Z,25.13
2023-02-22T02:48:44.315Z,25.12
2023-02-22T02:49:44.187Z,25.13
2023-02-22T02:50:44.133Z,25.12
2023-02-22T02:51:44.062Z,25.10
2023-02-22T02:52:44.032Z,25.10
2023-02-22T02:53:43.982Z,25.11
2023-02-22T02:54:43.892Z,25.11
2023-02-22T02:55:43.848Z,25.10
2023-02-22T02:56:43.801Z,25.10
2023-02-22T02:57:43.756Z,25.12
2023-02-22T02:58:43.748Z,25.08
2023-02-22T02:59:43.674Z,25.09
2023-02-22T03:00:43.618Z,25.10
2023-02-22T03:01:43.582Z,25.07
2023-02-22T03:02:43.513Z,25.06
2023-02-22T03:03:43.462Z,25.05
2023-02-22T03:04:43.441Z,25.07
2023-02-22T03:05:43.319Z,25.05
2023-02-22T03:06:43.264Z,25.04
2023-02-22T03:07:43.394Z,25.04
2023-02-22T03:08:43.220Z,25.04
2023-02-22T03:09:43.119Z,25.01
2023-02-22T03:10:43.053Z,25.01
2023-02-22T03:11:43.006Z,25.00
2023-02-22T03:12:42.950Z,24.99
2023-02-22T03:13:42.891Z,25.00
2023-02-22T03:14:42.841Z,25.00
2023-02-22T03:15:42.791Z,25.00
2023-02-22T03:16:42.837Z,25.00
2023-02-22T03:17:42.700Z,24.98
2023-02-22T03:18:42.679Z,24.99
2023-02-22T03:19:42.628Z,24.98
2023-02-22T03:20:42.548Z,24.98
2023-02-22T03:21:42.496Z,24.95
2023-02-22T03:22:42.442Z,24.93
2023-02-22T03:23:42.393Z,24.95
2023-02-22T03:24:42.368Z,24.94
2023-02-22T03:25:42.310Z,24.94
2023-02-22T03:26:42.244Z,24.94
2023-02-22T03:27:42.187Z,24.93
2023-02-22T03:28:42.132Z,24.92
2023-02-22T03:29:42.113Z,24.93
2023-02-22T03:30:42.045Z,24.93
2023-02-22T03:31:41.993Z,24.93
2023-02-22T03:32:41.956Z,24.92
2023-02-22T03:33:41.908Z,24.92
2023-02-22T03:34:41.901Z,24.92
2023-02-22T03:35:41.808Z,24.91
2023-02-22T03:36:41.772Z,24.89
2023-02-22T03:37:41.719Z,24.88
2023-02-22T03:38:41.675Z,24.88
2023-02-22T03:39:41.704Z,24.88
2023-02-22T03:40:41.587Z,24.87
2023-02-22T03:41:41.568Z,24.86
2023-02-22T03:42:41.490Z,24.84
2023-02-22T03:43:41.445Z,24.86
2023-02-22T03:44:41.402Z,24.85
2023-02-22T03:45:41.358Z,24.84
2023-02-22T03:46:41.366Z,24.82
2023-02-22T03:47:41.269Z,24.83
2023-02-22T03:48:41.212Z,24.82
2023-02-22T03:49:41.187Z,24.83
2023-02-22T03:50:41.143Z,24.83
2023-02-22T03:51:41.064Z,24.81
2023-02-22T03:52:41.015Z,24.78
2023-02-22T03:53:40.966Z,24.80
2023-02-22T03:54:40.949Z,24.78
2023-02-22T03:55:40.875Z,24.78
2023-02-22T03:56:40.822Z,24.79
2023-02-22T03:57:40.774Z,24.78
2023-02-22T03:58:40.720Z,24.78
2023-02-22T03:59:40.739Z,24.77
2023-02-22T04:00:40.616Z,24.77
2023-02-22T04:01:40.575Z,24.77
2023-02-22T04:02:40.556Z,24.76
2023-02-22T04:03:40.460Z,24.76
2023-02-22T04:04:40.461Z,24.75
2023-02-22T04:05:40.356Z,24.74
2023-02-22T04:06:40.321Z,24.74
2023-02-22T04:07:40.255Z,24.74
2023-02-22T04:08:40.226Z,24.74
2023-02-22T04:09:40.184Z,24.73
2023-02-22T04:10:40.096Z,24.71
2023-02-22T04:11:40.047Z,24.73
2023-02-22T04:12:40.018Z,24.72
2023-02-22T04:13:39.942Z,24.74
2023-02-22T04:14:39.901Z,24.72
2023-02-22T04:15:39.901Z,24.70
2023-02-22T04:16:39.809Z,24.72
2023-02-22T04:17:39.739Z,24.68
2023-02-22T04:18:39.959Z,24.69
2023-02-22T04:19:39.621Z,24.70
2023-02-22T04:20:39.582Z,24.71
2023-02-22T04:21:39.527Z,24.70
2023-02-22T04:22:39.492Z,24.69
2023-02-22T04:23:39.437Z,24.70
2023-02-22T04:24:39.364Z,24.68
2023-02-22T04:25:39.324Z,24.67
2023-02-22T04:26:39.264Z,24.68
2023-02-22T04:27:39.231Z,24.67
2023-02-22T04:28:39.161Z,24.66
2023-02-22T04:29:39.108Z,24.66
2023-02-22T04:30:39.113Z,24.65
2023-02-22T04:31:39.104Z,24.64
2023-02-22T04:32:38.947Z,24.66
2023-02-22T04:33:38.899Z,24.63
2023-02-22T04:34:38.852Z,24.64
2023-02-22T04:35:38.799Z,24.63
2023-02-22T04:36:38.752Z,24.64
2023-02-22T04:37:38.702Z,24.64
2023-02-22T04:38:38.689Z,24.64
2023-02-22T04:39:38.683Z,24.64
2023-02-22T04:40:38.584Z,24.62
2023-02-22T04:41:38.502Z,24.62
2023-02-22T04:42:38.443Z,24.63
2023-02-22T04:43:38.382Z,24.62
2023-02-22T04:44:38.324Z,24.61
2023-02-22T04:45:38.346Z,24.60
2023-02-22T04:46:38.265Z,24.58
2023-02-22T04:47:38.161Z,24.59
2023-02-22T04:48:38.113Z,24.59
2023-02-22T04:49:39.061Z,24.59
2023-02-22T04:50:38.060Z,24.56
2023-02-22T04:51:37.980Z,24.56
2023-02-22T04:52:37.923Z,24.56
2023-02-22T04:53:37.875Z,24.55
2023-02-22T04:54:37.805Z,24.54
2023-02-22T04:55:37.778Z,24.53
2023-02-22T04:56:37.705Z,24.54
2023-02-22T04:57:37.625Z,24.52
2023-02-22T04:58:37.576Z,24.54
2023-02-22T04:59:37.534Z,24.53
2023-02-22T05:00:37.470Z,24.51
2023-02-22T05:01:37.472Z,24.50
2023-02-22T05:02:37.398Z,24.51
2023-02-22T05:03:37.316Z,24.49
2023-02-22T05:04:37.345Z,24.50
2023-02-22T05:05:37.221Z,24.48
2023-02-22T05:06:37.152Z,24.49
2023-02-22T05:07:37.102Z,24.50
2023-02-22T05:08:37.051Z,24.50
2023-02-22T05:09:36.993Z,24.48
2023-02-22T05:10:36.960Z,24.47
2023-02-22T05:11:36.902Z,24.46
2023-02-22T05:12:36.831Z,24.46
2023-02-22T05:13:36.785Z,24.45
2023-02-22T05:14:36.729Z,24.43
2023-02-22T05:15:36.688Z,24.45
2023-02-22T05:16:36.646Z,24.42
2023-02-22T05:17:36.589Z,24.44
2023-02-22T05:18:36.585Z,24.41
2023-02-22T05:19:36.490Z,24.38
2023-02-22T05:20:36.436Z,24.40
2023-02-22T05:21:36.394Z,24.40
2023-02-22T05:22:36.336Z,24.39
2023-02-22T05:23:36.269Z,24.41
2023-02-22T05:24:36.212Z,24.39
2023-02-22T05:25:36.153Z,24.39
2023-02-22T05:26:36.131Z,24.36
2023-02-22T05:27:36.053Z,24.34
2023-02-22T05:28:35.989Z,24.37
2023-02-22T05:29:35.935Z,24.36
2023-02-22T05:30:35.921Z,24.37
2023-02-22T05:31:35.951Z,24.34
2023-02-22T05:32:35.801Z,24.32
2023-02-22T05:33:35.712Z,24.34
2023-02-22T05:34:35.669Z,24.32
2023-02-22T05:35:35.611Z,24.34
2023-02-22T05:36:35.564Z,24.34
2023-02-22T05:37:35.660Z,24.33
2023-02-22T05:38:35.454Z,24.29
2023-02-22T05:39:35.408Z,24.28
2023-02-22T05:40:35.357Z,24.29
2023-02-22T05:41:35.304Z,24.28
2023-02-22T05:42:35.280Z,24.28
2023-02-22T05:43:35.205Z,24.26
2023-02-22T05:44:35.150Z,24.26
2023-02-22T05:45:35.084Z,24.27
2023-02-22T05:46:35.117Z,24.26
2023-02-22T05:47:35.008Z,24.25
2023-02-22T05:48:34.938Z,24.24
2023-02-22T05:49:34.891Z,24.23
2023-02-22T05:50:34.808Z,24.23
2023-02-22T05:51:34.753Z,24.22
2023-02-22T05:52:34.735Z,24.22
2023-02-22T05:53:34.650Z,24.21
2023-02-22T05:54:34.582Z,24.19
2023-02-22T05:55:34.535Z,24.19
2023-02-22T05:56:34.494Z,24.20
2023-02-22T05:57:34.444Z,24.20
2023-02-22T05:58:34.417Z,24.16
2023-02-22T05:59:34.347Z,24.14
2023-02-22T06:00:34.277Z,24.14
2023-02-22T06:01:34.227Z,24.14
2023-02-22T06:02:34.181Z,24.16
2023-02-22T06:03:34.132Z,24.17
2023-02-22T06:04:34.082Z,24.14
2023-02-22T06:05:34.071Z,24.14
2023-02-22T06:06:34.012Z,24.11
2023-02-22T06:07:34.673Z,24.12
2023-02-22T06:08:33.865Z,24.14
2023-02-22T06:09:33.806Z,24.11
2023-02-22T06:10:33.769Z,24.07
2023-02-22T06:11:33.702Z,24.07
2023-02-22T06:12:33.657Z,24.05
2023-02-22T06:13:33.605Z,24.04
2023-02-22T06:14:33.569Z,24.04
2023-02-22T06:15:33.484Z,24.03
2023-02-22T06:16:33.514Z,24.03
2023-02-22T06:17:33.386Z,24.05
2023-02-22T06:18:33.354Z,24.08
2023-02-22T06:19:33.275Z,24.14
2023-02-22T06:20:33.225Z,24.18
2023-02-22T06:21:33.172Z,24.24
2023-02-22T06:22:33.572Z,24.30
2023-02-22T06:23:33.670Z,24.31
2023-02-22T06:24:33.014Z,24.21
2023-02-22T06:25:32.941Z,24.16
2023-02-22T06:26:32.890Z,24.14
2023-02-22T06:27:32.859Z,24.14
2023-02-22T06:28:32.790Z,24.15
2023-02-22T06:29:32.720Z,24.17
2023-02-22T06:30:32.726Z,24.24
2023-02-22T06:31:32.691Z,24.31
2023-02-22T06:32:32.639Z,24.32
2023-02-22T06:33:32.857Z,24.31
2023-02-22T06:34:32.459Z,24.32
2023-02-22T06:35:32.404Z,24.36
2023-02-22T06:36:32.356Z,24.33
2023-02-22T06:37:32.301Z,24.33
2023-02-22T06:38:32.278Z,24.33
2023-02-22T06:39:32.209Z,24.35
2023-02-22T06:40:32.135Z,24.39
2023-02-22T06:41:32.093Z,24.43
2023-02-22T06:43:42.188Z,24.68
2023-02-22T06:44:43.158Z,24.91
2023-02-22T06:45:43.205Z,25.02
2023-02-22T06:46:43.108Z,24.94
2023-02-22T06:47:43.059Z,24.92
2023-02-22T06:48:43.452Z,24.90
2023-02-22T06:49:43.005Z,25.09
2023-02-22T06:50:42.973Z,25.18
2023-02-22T06:51:42.942Z,25.27
2023-02-22T06:52:42.923Z,25.51
2023-02-22T06:53:42.899Z,25.63
2023-02-22T06:54:42.841Z,25.65
2023-02-22T06:55:42.801Z,25.85
2023-02-22T06:56:42.793Z,26.19
2023-02-22T06:57:42.736Z,26.26
2023-02-22T06:58:43.563Z,26.26
2023-02-22T06:59:42.651Z,26.43
2023-02-22T07:00:42.715Z,26.69
2023-02-22T07:01:50.011Z,26.86
2023-02-22T07:02:45.817Z,27.11
2023-02-22T07:03:42.980Z,27.22
2023-02-22T07:04:43.620Z,27.31
2023-02-22T07:05:42.421Z,27.34
2023-02-22T07:06:42.373Z,27.51
2023-02-22T07:07:42.299Z,27.68
2023-02-22T07:08:42.391Z,27.85
2023-02-22T07:09:43.821Z,27.94
2023-02-22T07:10:42.154Z,28.08
2023-02-22T07:11:42.142Z,28.17
2023-02-22T07:12:42.066Z,28.34
2023-02-22T07:13:42.421Z,28.50
2023-02-22T07:14:41.990Z,28.69
2023-02-22T07:15:41.953Z,28.83
2023-02-22T07:16:42.862Z,28.86
2023-02-22T07:17:41.875Z,28.98
2023-02-22T07:18:41.777Z,29.12
2023-02-22T07:19:41.896Z,29.17
2023-02-22T07:20:41.676Z,29.22
2023-02-22T07:21:41.930Z,29.28
2023-02-22T07:22:41.562Z,29.40
2023-02-22T07:23:41.525Z,29.42
2023-02-22T07:24:41.899Z,29.50
2023-02-22T07:25:41.431Z,29.59
2023-02-22T07:26:41.402Z,29.67
2023-02-22T07:27:41.337Z,29.78
2023-02-22T07:28:41.314Z,29.86
2023-02-22T07:29:41.402Z,29.92
2023-02-22T07:30:41.249Z,29.92
2023-02-22T07:31:41.132Z,29.98
2023-02-22T07:32:41.242Z,30.21
2023-02-22T07:33:41.048Z,30.17
2023-02-22T07:34:41.411Z,30.28
2023-02-22T07:35:40.920Z,30.36
2023-02-22T07:36:40.870Z,30.43
2023-02-22T07:37:40.817Z,30.53
2023-02-22T07:38:40.768Z,30.59
2023-02-22T07:39:40.919Z,30.70
2023-02-22T07:40:40.682Z,30.76
2023-02-22T07:41:41.408Z,30.83
2023-02-22T07:42:40.564Z,30.99
2023-02-22T07:43:40.514Z,30.86
2023-02-22T07:44:40.454Z,30.98
2023-02-22T07:45:40.477Z,31.11
2023-02-22T07:46:41.344Z,31.24
2023-02-22T07:47:40.297Z,31.19
2023-02-22T07:48:40.255Z,31.08
2023-02-22T07:49:40.446Z,31.04
2023-02-22T07:50:47.564Z,30.95
2023-02-22T07:51:40.414Z,30.89
2023-02-22T07:52:40.026Z,30.79
2023-02-22T07:53:41.001Z,30.81
2023-02-22T07:54:40.408Z,30.76
2023-02-22T07:55:39.878Z,30.90
2023-02-22T07:56:39.847Z,30.75
2023-02-22T07:57:39.910Z,30.70
2023-02-22T07:58:40.715Z,30.64
2023-02-22T07:59:39.715Z,30.64
2023-02-22T08:00:39.617Z,30.60
2023-02-22T08:01:39.913Z,30.52
2023-02-22T08:02:39.565Z,30.51
2023-02-22T08:03:39.526Z,30.50
2023-02-22T08:04:39.408Z,30.46
2023-02-22T08:05:39.382Z,30.42
2023-02-22T08:06:39.298Z,30.40
2023-02-22T08:07:39.244Z,30.40
2023-02-22T08:08:39.415Z,30.38
2023-02-22T08:09:39.126Z,30.36
2023-02-22T08:10:39.073Z,30.34
2023-02-22T08:11:39.010Z,30.32
2023-02-22T08:12:38.952Z,30.27
2023-02-22T08:13:38.883Z,30.28
2023-02-22T08:14:38.846Z,30.24
2023-02-22T08:15:38.787Z,30.20
2023-02-22T08:16:38.748Z,30.22
2023-02-22T08:17:38.720Z,30.20
2023-02-22T08:18:38.633Z,30.19
2023-02-22T08:19:38.578Z,30.12
2023-02-22T08:20:38.920Z,30.12
2023-02-22T08:21:38.480Z,30.06
2023-02-22T08:22:38.412Z,30.07
2023-02-22T08:23:38.382Z,30.03
2023-02-22T08:24:38.313Z,30.01
2023-02-22T08:25:38.256Z,29.97
2023-02-22T08:26:38.206Z,29.96
2023-02-22T08:27:38.164Z,29.93
2023-02-22T08:28:38.588Z,29.91
2023-02-22T08:29:38.047Z,29.89
2023-02-22T08:30:40.447Z,29.87
2023-02-22T08:31:38.085Z,29.87
2023-02-22T08:32:38.001Z,29.85
2023-02-22T08:33:37.842Z,29.82
2023-02-22T08:34:37.797Z,29.79
2023-02-22T08:35:37.941Z,29.76
2023-02-22T08:36:37.704Z,29.73
2023-02-22T08:37:38.005Z,29.79
2023-02-22T08:38:37.611Z,29.72
2023-02-22T08:39:37.573Z,29.72
2023-02-22T08:40:37.514Z,29.78
2023-02-22T08:41:37.957Z,29.81
2023-02-22T08:42:37.453Z,29.80
2023-02-22T08:43:37.411Z,29.76
2023-02-22T08:44:37.323Z,29.67
2023-02-22T08:45:37.509Z,29.67
2023-02-22T08:46:37.212Z,29.75
2023-02-22T08:47:37.145Z,29.94
2023-02-22T08:48:37.097Z,30.06
2023-02-22T08:49:37.039Z,29.96
2023-02-22T08:50:37.431Z,30.06
2023-02-22T08:51:37.431Z,30.41
2023-02-22T08:52:36.877Z,30.34
2023-02-22T08:53:36.881Z,30.35
2023-02-22T08:54:36.757Z,30.27
2023-02-22T08:55:36.687Z,30.23
2023-02-22T08:56:36.933Z,30.21
2023-02-22T08:57:36.571Z,30.19
2023-02-22T08:58:36.513Z,30.21
2023-02-22T08:59:36.458Z,30.23
2023-02-22T09:00:36.409Z,30.25
2023-02-22T09:01:36.799Z,30.24
2023-02-22T09:02:36.292Z,30.23
2023-02-22T09:03:36.238Z,30.20
2023-02-22T09:04:36.179Z,30.18
2023-02-22T09:05:36.128Z,30.20
2023-02-22T09:06:36.434Z,30.19
2023-02-22T09:07:36.043Z,30.17
2023-02-22T09:08:35.993Z,30.18
2023-02-22T09:09:35.992Z,30.15
2023-02-22T09:10:35.884Z,30.15
2023-02-22T09:11:35.841Z,30.15
2023-02-22T09:12:35.818Z,30.13
2023-02-22T09:13:35.800Z,30.12
2023-02-22T09:14:35.709Z,30.11
2023-02-22T09:15:35.673Z,30.08
2023-02-22T09:16:35.974Z,30.05
2023-02-22T09:17:35.572Z,30.06
2023-02-22T09:18:43.650Z,30.02
2023-02-22T09:19:35.498Z,30.01
2023-02-22T09:20:35.454Z,30.01
2023-02-22T09:21:35.441Z,29.97
2023-02-22T09:22:35.361Z,29.97
2023-02-22T09:23:35.302Z,29.91
2023-02-22T09:24:35.246Z,29.93
2023-02-22T09:25:35.210Z,29.91
2023-02-22T09:26:35.462Z,29.86
2023-02-22T09:27:35.102Z,29.85
2023-02-22T09:28:35.050Z,29.86
2023-02-22T09:29:34.995Z,29.84
2023-02-22T09:30:35.046Z,29.80
2023-02-22T09:31:35.004Z,29.78
2023-02-22T09:32:35.049Z,29.76
2023-02-22T09:33:34.801Z,29.73
2023-02-22T09:34:34.772Z,29.72
2023-02-22T09:35:34.708Z,29.65
2023-02-22T09:36:34.956Z,29.64
2023-02-22T09:37:34.616Z,29.60
2023-02-22T09:38:34.577Z,29.60
2023-02-22T09:39:34.543Z,29.62
2023-02-22T09:40:34.479Z,29.63
2023-02-22T09:41:36.307Z,29.60
2023-02-22T09:42:34.371Z,29.61
2023-02-22T09:43:34.319Z,29.55
2023-02-22T09:44:34.258Z,29.53
2023-02-22T09:45:34.251Z,29.55
2023-02-22T09:46:34.698Z,29.50
2023-02-22T09:47:34.145Z,29.51
2023-02-22T09:48:34.088Z,29.48
2023-02-22T09:49:34.042Z,29.46
2023-02-22T09:50:33.994Z,29.45
2023-02-22T09:51:34.481Z,29.42
2023-02-22T09:52:33.901Z,29.38
2023-02-22T09:53:33.838Z,29.38
2023-02-22T09:54:33.801Z,29.37
2023-02-22T09:55:33.755Z,29.34
2023-02-22T09:56:33.723Z,29.34
2023-02-22T09:57:33.713Z,29.30
2023-02-22T09:58:33.624Z,29.27
2023-02-22T09:59:33.587Z,29.21
2023-02-22T10:00:33.523Z,29.20
2023-02-22T10:01:33.953Z,29.17
2023-02-22T10:02:33.439Z,29.16
2023-02-22T10:03:33.439Z,29.17
2023-02-22T10:04:33.376Z,29.14
2023-02-22T10:05:33.350Z,29.13
2023-02-22T10:06:33.970Z,29.11
2023-02-22T10:07:33.212Z,29.10
2023-02-22T10:08:33.173Z,29.09
2023-02-22T10:09:33.123Z,29.05
2023-02-22T10:10:33.088Z,29.06
2023-02-22T10:11:36.699Z,29.02
2023-02-22T10:12:33.001Z,29.03
2023-02-22T10:13:33.153Z,28.99
2023-02-22T10:14:32.959Z,28.93
2023-02-22T10:15:32.901Z,28.91
2023-02-22T10:16:32.877Z,28.90
2023-02-22T10:17:32.960Z,28.89
2023-02-22T10:18:32.777Z,28.92
2023-02-22T10:19:32.722Z,28.90
2023-02-22T10:20:32.673Z,28.89
2023-02-22T10:21:32.647Z,28.82
2023-02-22T10:22:32.598Z,28.82
2023-02-22T10:23:32.560Z,28.78
2023-02-22T10:24:32.517Z,28.78
2023-02-22T10:25:32.490Z,28.74
2023-02-22T10:26:32.447Z,28.72
2023-02-22T10:27:32.480Z,27.53
2023-02-22T10:28:32.388Z,26.52
2023-02-22T10:29:32.380Z,27.11
2023-02-22T10:30:34.202Z,24.80
2023-02-22T10:31:32.562Z,24.86
2023-02-22T10:32:32.520Z,25.51
2023-02-22T10:33:32.242Z,25.37
2023-02-22T10:34:32.223Z,24.36
2023-02-22T10:35:32.190Z,25.69
2023-02-22T10:36:32.162Z,25.92
2023-02-22T10:37:32.572Z,26.35
2023-02-22T10:38:32.104Z,26.96
2023-02-22T10:39:32.126Z,28.36
2023-02-22T10:40:32.257Z,27.79
2023-02-22T10:41:32.012Z,27.68
2023-02-22T10:42:32.477Z,28.43
2023-02-22T10:43:31.928Z,28.44
2023-02-22T10:44:31.892Z,28.80
2023-02-22T10:45:31.911Z,28.84
2023-02-22T10:46:31.801Z,28.68
2023-02-22T10:47:32.010Z,28.67
2023-02-22T10:48:31.728Z,28.77
2023-02-22T10:49:31.665Z,28.82
2023-02-22T10:50:31.634Z,28.98
2023-02-22T10:51:31.592Z,29.03
2023-02-22T10:52:31.515Z,29.12
2023-02-22T10:53:31.456Z,29.31
2023-02-22T10:54:31.391Z,29.28
2023-02-22T10:55:31.359Z,29.41
2023-02-22T10:56:31.302Z,29.49
2023-02-22T10:57:31.484Z,29.60
2023-02-22T10:58:31.211Z,29.71
2023-02-22T10:59:31.169Z,29.88
2023-02-22T11:00:31.115Z,29.97
2023-02-22T11:01:31.190Z,30.11
2023-02-22T11:02:31.013Z,30.20
2023-02-22T11:03:30.968Z,30.30
2023-02-22T11:04:30.930Z,30.32
2023-02-22T11:05:30.900Z,30.41
2023-02-22T11:06:30.985Z,30.60
2023-02-22T11:07:30.780Z,30.76
2023-02-22T11:08:30.736Z,30.85
2023-02-22T11:09:30.679Z,30.98
2023-02-22T11:10:30.623Z,31.06
2023-02-22T11:11:30.986Z,31.10
2023-02-22T11:12:30.559Z,31.17
2023-02-22T11:13:30.486Z,31.33
2023-02-22T11:14:30.485Z,31.43
2023-02-22T11:15:30.402Z,31.50
2023-02-22T11:16:30.396Z,31.54
2023-02-22T11:17:30.342Z,31.67
2023-02-22T11:18:30.253Z,31.89
2023-02-22T11:19:30.489Z,31.96
2023-02-22T11:20:30.146Z,32.04
2023-02-22T11:21:30.091Z,32.10
2023-02-22T11:22:30.046Z,32.07
2023-02-22T11:23:30.005Z,32.18
2023-02-22T11:24:37.280Z,32.33
2023-02-22T11:25:29.927Z,32.39
2023-02-22T11:26:29.889Z,32.41
2023-02-22T11:27:29.827Z,32.46
2023-02-22T11:28:29.994Z,32.55
2023-02-22T11:29:29.770Z,32.53
2023-02-22T11:30:29.844Z,32.66
2023-02-22T11:31:29.675Z,32.76
2023-02-22T11:32:29.577Z,32.81
2023-02-22T11:33:30.025Z,32.86
2023-02-22T11:34:29.462Z,32.97
2023-02-22T11:35:29.431Z,33.02
2023-02-22T11:36:29.364Z,33.05
2023-02-22T11:37:32.532Z,33.17
2023-02-22T11:38:29.273Z,33.27
2023-02-22T11:39:29.314Z,33.32
2023-02-22T11:40:29.493Z,33.32
2023-02-22T11:41:29.144Z,33.42
2023-02-22T11:42:29.076Z,33.53
2023-02-22T11:43:29.021Z,33.64
2023-02-22T11:44:28.986Z,33.72
2023-02-22T11:45:29.024Z,33.72
2023-02-22T11:46:28.936Z,33.81
2023-02-22T11:47:28.806Z,33.87
2023-02-22T11:48:28.745Z,33.91
2023-02-22T11:49:28.722Z,34.03
2023-02-22T11:50:28.664Z,34.07
2023-02-22T11:51:28.579Z,34.11
2023-02-22T11:52:28.568Z,34.14
2023-02-22T11:53:28.470Z,34.32
2023-02-22T11:54:28.401Z,34.34
2023-02-22T11:55:43.099Z,34.45
2023-02-22T11:56:37.195Z,34.50
2023-02-22T11:57:28.263Z,34.52
2023-02-22T11:58:28.189Z,34.60
2023-02-22T11:59:28.500Z,34.68
2023-02-22T12:00:28.072Z,34.73
2023-02-22T12:01:28.023Z,34.82
2023-02-22T12:02:27.961Z,34.86
2023-02-22T12:03:28.951Z,34.89
2023-02-22T12:04:27.944Z,34.97
2023-02-22T12:05:27.873Z,35.16
2023-02-22T12:06:27.727Z,35.37
2023-02-22T12:07:27.666Z,35.16
2023-02-22T12:08:27.620Z,35.18
2023-02-22T12:09:28.019Z,35.10
2023-02-22T12:10:27.511Z,34.91
2023-02-22T12:11:27.443Z,34.77
2023-02-22T12:12:27.532Z,34.69
2023-02-22T12:13:27.332Z,34.67
2023-02-22T12:14:27.517Z,34.64
2023-02-22T12:15:27.217Z,34.62
2023-02-22T12:16:27.173Z,34.62
2023-02-22T12:17:27.123Z,34.55
2023-02-22T12:18:27.077Z,34.58
2023-02-22T12:19:27.045Z,33.80
2023-02-22T12:20:26.977Z,32.48
2023-02-22T12:21:26.930Z,32.93
2023-02-22T12:22:26.870Z,31.49
2023-02-22T12:23:26.820Z,31.75
2023-02-22T12:24:26.779Z,31.69
2023-02-22T12:25:26.744Z,31.14
2023-02-22T12:26:26.680Z,30.74
2023-02-22T12:27:26.677Z,29.76
2023-02-22T12:28:26.600Z,29.24
2023-02-22T12:29:26.565Z,28.75
2023-02-22T12:30:26.533Z,28.83
2023-02-22T12:31:26.503Z,27.11
2023-02-22T12:32:26.534Z,27.06
2023-02-22T12:33:26.572Z,27.21
2023-02-22T12:34:26.378Z,26.83
2023-02-22T12:35:26.300Z,26.60
2023-02-22T12:36:26.261Z,25.12
2023-02-22T12:37:26.228Z,25.58
2023-02-22T12:38:26.529Z,25.76
2023-02-22T12:39:26.172Z,25.47
2023-02-22T12:40:26.067Z,26.54
2023-02-22T12:41:25.998Z,26.45
2023-02-22T12:42:25.955Z,27.19
2023-02-22T12:43:26.050Z,27.52
2023-02-22T12:44:25.874Z,27.39
2023-02-22T12:45:25.840Z,27.08
2023-02-22T12:46:25.848Z,27.02
2023-02-22T12:47:25.753Z,27.03
2023-02-22T12:48:25.712Z,27.11
2023-02-22T12:49:25.669Z,27.48
2023-02-22T12:50:25.614Z,26.86
2023-02-22T12:51:25.563Z,24.59
2023-02-22T12:52:25.518Z,23.57
2023-02-22T12:53:25.523Z,23.16
2023-02-22T12:54:25.446Z,22.77
2023-02-22T12:55:25.387Z,22.92
2023-02-22T12:56:25.381Z,22.87
2023-02-22T12:57:25.338Z,22.90
2023-02-22T12:58:25.313Z,22.85
2023-02-22T12:59:25.273Z,22.81
2023-02-22T13:00:25.534Z,22.67
2023-02-22T13:01:25.248Z,22.56
2023-02-22T13:02:25.193Z,22.32
2023-02-22T13:03:25.167Z,22.71
2023-02-22T13:04:25.144Z,22.59
2023-02-22T13:05:25.163Z,22.09
2023-02-22T13:06:25.112Z,22.52
2023-02-22T13:07:25.091Z,22.68
2023-02-22T13:08:25.073Z,22.69
2023-02-22T13:09:25.076Z,22.79
2023-02-22T13:10:25.022Z,23.06
2023-02-22T13:11:25.031Z,23.29
2023-02-22T13:12:24.981Z,23.87
2023-02-22T13:13:24.947Z,25.44
2023-02-22T13:14:24.912Z,29.93
2023-02-22T13:15:24.871Z,31.56
2023-02-22T13:16:25.039Z,34.08
2023-02-22T13:17:24.796Z,29.67
2023-02-22T13:18:24.770Z,30.50
2023-02-22T13:19:24.718Z,32.80
2023-02-22T13:20:24.680Z,34.51
2023-02-22T13:21:24.649Z,34.88
2023-02-22T13:22:25.625Z,35.68
2023-02-22T13:23:24.578Z,36.46
2023-02-22T13:24:24.535Z,36.16
2023-02-22T13:25:24.560Z,36.04
2023-02-22T13:26:24.460Z,34.87
2023-02-22T13:27:24.421Z,33.34
2023-02-22T13:28:24.395Z,33.24
2023-02-22T13:29:24.349Z,33.27
2023-02-22T13:30:24.363Z,33.28
2023-02-22T13:33:24.539Z,33.39
2023-02-22T13:35:24.544Z,33.45
2023-02-22T13:49:25.590Z,33.26
2023-02-22T13:50:23.453Z,33.30
2023-02-22T13:54:23.234Z,33.19
2023-02-22T13:55:23.178Z,33.19
2023-02-22T13:56:23.143Z,33.13
2023-02-22T13:57:23.149Z,33.16
2023-02-22T13:58:23.055Z,33.09
2023-02-22T13:59:23.011Z,33.09
2023-02-22T14:00:23.029Z,33.04
2023-02-22T14:01:22.965Z,33.02